LICDDTMB

Guest
Details From LICD - LAMPEDUSA
To DTMB - Monastir Habib Bourguiba Intl
Flight Number -
Tags generated
Created
Modified
Stats Distance 92 nm / 171 km
Max Altitude 7,900 ft / 2,408 m
Waypoints 3
Social Downloads 3
Likes 0
Share VATSIM

Download

Looking for another format? Having issues loading an existing format? Contact us
Advertisement - Login to hide

Notes

Basic altitude profile: - Ascent Rate: 2500ft/min - Ascent Speed: 250kts - Cruise Altitude: 250ft - Cruise Speed: 420kts - Descent Rate: 1500ft/min - Descent Speed: 250kts Options: - Use NATs: yes - Use PACOTS: yes - Use low airways: yes - Use high airways: yes

Route

LICD NIGAT DTMB

ID Type Via Altitude Latitude Longitude Leg Dist Tot Dist Heading (true) Name
O LICD APT - 0 ft / 0 m 35.49797˚ 12.61808˚ - 0 nm - LAMPEDUSA
NIGAT FIX - 7,900 ft / 2,408 m 35.65750˚ 11.50000˚ 55 nm 55 nm 280° / 280° -
O DTMB APT - 0 ft / 0 m 35.75784˚ 10.75403˚ 36 nm 92 nm 280° / 279° Monastir Habib Bourguiba Intl

Altitude Profile

Advertisement - Login to hide

LICD

Details ICAO LICD (LMP)
Name LAMPEDUSA
Region Italy
Timezone Europe/Rome (UTC+1.0)
Stats Elevation 70 ft / 21 m (AMSL)
Location 35.497966° 12.618077°
Runways 1
Magnetic Variation 2.714° E

METAR

LICD 111250Z 19022KT CAVOK 17/08 Q1015

Decode

TAF

TAF TAF LICD 111100Z 1112/1212 20020KT CAVOK

Decode

Departure Runways

ID Width Length Bearing (true) Bearing (mag) Surface Threshold Offset Overrun Length
08 148 ft / 45 m 5,897 ft / 1,797 m 80.57° 77.86° Asphalt 0 ft / 0 m 0 ft / 0 m
26 148 ft / 45 m 5,897 ft / 1,797 m 260.59° 257.88° Asphalt 0 ft / 0 m 0 ft / 0 m

DTMB

Details ICAO DTMB (MIR)
Name Monastir Habib Bourguiba Intl
Region Tunisia
Timezone Africa/Tunis (UTC+1.0)
Stats Elevation 9 ft / 3 m (AMSL)
Location 35.757843° 10.754025°
Runways 1
Magnetic Variation 2.432° E

METAR

DTMB 111300Z 18024KT 8000 NSC 19/05 Q1012

Decode

TAF

TAF DTMB 111100Z 1112/1212 18021KT 8000 FEW026 TEMPO 1112/1124 18025G35KT BECMG 1202/1204 18015KT

Decode

Destination Runways

ID Width Length Bearing (true) Bearing (mag) Surface Threshold Offset Overrun Length
07 148 ft / 45 m 9,627 ft / 2,934 m 73.54° 71.11° Asphalt 0 ft / 0 m 164 ft / 50 m
25 148 ft / 45 m 9,627 ft / 2,934 m 253.56° 251.13° Asphalt 0 ft / 0 m 164 ft / 50 m

Approach Navaids

Runway Type Ident Frequency Range Bearing (true) Bearing (mag) Slope Elevation
07 Localiser MIS 109.90 MHz 18 nm / 33 km 73.57° 71.14° - 9 ft / 3 m (AMSL)
07 Glidescope MIS 109.90 MHz 10 nm / 19 km 73.55° 71.12° 3.00° 9 ft / 3 m (AMSL)